Terminal Aerodrome Forecast
Issued by NWS

Home | Current Version | Previous Version | Graphics & Text | Print | Product List | Glossary On
Versions: 1 2 3 4 5 6 7 8 9 10 11 12 13 14
914
FTUS41 KCLE 220534
TAFFDY
TAF
KFDY 220534Z 2206/2306 27010KT P6SM BKN040
     FM221100 26009G20KT P6SM FEW040 SCT250
     FM230000 22007KT P6SM SCT250=

USA.gov is the U.S. government's official web portal to all federal, state and local government web resources and services.